createdAt,value
2022-09-30T00:02:51.725Z,0
2022-09-30T00:08:02.773Z,0
2022-09-30T00:13:13.931Z,0
2022-09-30T00:18:25.088Z,0
2022-09-30T00:23:36.304Z,0
2022-09-30T00:28:47.451Z,0
2022-09-30T00:33:56.725Z,0
2022-09-30T00:39:00.873Z,0
2022-09-30T00:44:05.093Z,0
2022-09-30T00:49:09.241Z,0
2022-09-30T00:54:13.418Z,0
2022-09-30T00:59:17.583Z,0
2022-09-30T01:04:21.773Z,0
2022-09-30T01:09:26.011Z,0
2022-09-30T01:14:30.039Z,0
2022-09-30T01:19:34.203Z,0
2022-09-30T01:24:38.392Z,0
2022-09-30T01:29:42.547Z,0
2022-09-30T01:34:46.691Z,0
2022-09-30T01:39:50.884Z,0
2022-09-30T01:44:55.084Z,0
2022-09-30T01:49:59.239Z,0
2022-09-30T01:55:03.357Z,0
2022-09-30T02:00:07.563Z,0
2022-09-30T02:05:11.725Z,0
2022-09-30T02:10:15.864Z,0
2022-09-30T02:15:19.984Z,0
2022-09-30T02:20:22.309Z,0
2022-09-30T02:25:26.621Z,0
2022-09-30T02:30:28.718Z,0
2022-09-30T02:35:32.883Z,0
2022-09-30T02:40:37.145Z,0
2022-09-30T02:45:41.216Z,0
2022-09-30T02:50:45.426Z,0
2022-09-30T02:55:49.545Z,0
2022-09-30T03:00:53.780Z,0
2022-09-30T03:05:57.906Z,0
2022-09-30T03:11:02.024Z,0
2022-09-30T03:16:06.225Z,0
2022-09-30T03:21:10.372Z,0
2022-09-30T03:26:14.543Z,0
2022-09-30T03:31:18.774Z,0
2022-09-30T03:36:22.850Z,0
2022-09-30T03:41:27.043Z,0
2022-09-30T03:46:31.242Z,0
2022-09-30T03:51:35.353Z,0
2022-09-30T03:56:39.511Z,0
2022-09-30T04:01:43.709Z,0
2022-09-30T04:06:47.835Z,0
2022-09-30T04:11:52.024Z,0
2022-09-30T04:16:54.281Z,0
2022-09-30T04:21:58.447Z,0
2022-09-30T04:27:02.642Z,0
2022-09-30T04:32:06.805Z,0
2022-09-30T04:37:11.275Z,0
2022-09-30T04:42:15.105Z,0
2022-09-30T04:47:19.296Z,0
2022-09-30T04:52:23.430Z,0
2022-09-30T04:57:27.575Z,0
2022-09-30T05:02:31.783Z,0
2022-09-30T05:07:35.961Z,1
2022-09-30T05:12:40.253Z,4
2022-09-30T05:17:44.242Z,12
2022-09-30T05:22:48.447Z,30
2022-09-30T05:27:52.647Z,60
2022-09-30T05:32:56.777Z,104
2022-09-30T05:38:00.937Z,165
2022-09-30T05:43:05.064Z,239
2022-09-30T05:48:09.271Z,324
2022-09-30T05:53:13.431Z,420
2022-09-30T05:58:17.594Z,522
2022-09-30T06:03:19.877Z,628
2022-09-30T06:08:24.029Z,732
2022-09-30T06:13:26.273Z,835
2022-09-30T06:18:30.470Z,910
2022-09-30T06:23:34.615Z,985
2022-09-30T06:28:38.813Z,1058
2022-09-30T06:33:42.937Z,1150
2022-09-30T06:38:47.111Z,1202
2022-09-30T06:44:09.409Z,1278
2022-09-30T06:49:04.970Z,1352
2022-09-30T06:53:59.637Z,1410
2022-09-30T06:59:03.756Z,1450
2022-09-30T07:04:07.916Z,1470
2022-09-30T07:09:12.203Z,1544
2022-09-30T07:14:16.281Z,1563
2022-09-30T07:19:20.409Z,1590
2022-09-30T07:24:24.576Z,1663
2022-09-30T07:29:36.650Z,1765
2022-09-30T07:34:32.905Z,1779
2022-09-30T07:39:37.070Z,1706
2022-09-30T07:44:41.207Z,1710
2022-09-30T07:49:45.418Z,1757
2022-09-30T07:54:50.723Z,1764
2022-09-30T07:59:51.844Z,1781
2022-09-30T08:04:56.001Z,1818
2022-09-30T08:09:58.378Z,1863
2022-09-30T08:15:02.445Z,1870
2022-09-30T08:20:13.083Z,1922
2022-09-30T08:25:10.807Z,1938
2022-09-30T08:30:14.911Z,1920
2022-09-30T08:35:19.091Z,1917
2022-09-30T08:40:23.209Z,1903
2022-09-30T08:45:27.461Z,1895
2022-09-30T08:50:31.559Z,1874
2022-09-30T08:55:35.716Z,1869
2022-09-30T09:00:40.060Z,1872
2022-09-30T09:05:47.309Z,1890
2022-09-30T09:10:48.209Z,1899
2022-09-30T09:15:52.381Z,1903
2022-09-30T09:20:56.553Z,1907
2022-09-30T09:26:00.723Z,1881
2022-09-30T09:31:04.853Z,1896
2022-09-30T09:36:09.141Z,1870
2022-09-30T09:41:13.202Z,1905
2022-09-30T09:46:17.489Z,1883
2022-09-30T09:51:21.481Z,1854
2022-09-30T09:56:26.324Z,1840
2022-09-30T10:01:27.978Z,1835
2022-09-30T10:06:32.111Z,1840
2022-09-30T10:11:34.372Z,1963
2022-09-30T10:16:38.544Z,1991
2022-09-30T10:21:42.704Z,2156
2022-09-30T10:26:48.887Z,2136
2022-09-30T10:31:51.040Z,2061
2022-09-30T10:36:55.194Z,2095
2022-09-30T10:41:59.347Z,1970
2022-09-30T10:47:03.598Z,2888
2022-09-30T10:52:07.649Z,3189
2022-09-30T10:57:11.805Z,3592
2022-09-30T11:02:16.014Z,4548
2022-09-30T11:07:20.171Z,4471
2022-09-30T11:12:24.298Z,2686
2022-09-30T11:17:28.421Z,3612
2022-09-30T11:22:32.625Z,2884
2022-09-30T11:27:36.800Z,2951
2022-09-30T11:37:45.115Z,2892
2022-09-30T11:42:49.276Z,2850
2022-09-30T11:47:53.488Z,4563
2022-09-30T11:52:57.587Z,3418
2022-09-30T11:58:12.064Z,2437
2022-09-30T12:03:07.904Z,2486
2022-09-30T12:08:08.143Z,2477
2022-09-30T12:13:12.365Z,2290
2022-09-30T12:18:14.604Z,2470
2022-09-30T12:23:18.732Z,2307
2022-09-30T12:28:22.979Z,2147
2022-09-30T12:33:27.109Z,2206
2022-09-30T12:38:31.224Z,2117
2022-09-30T12:43:35.392Z,2055
2022-09-30T12:48:39.554Z,2080
2022-09-30T12:53:43.801Z,2055
2022-09-30T12:58:47.847Z,2593
2022-09-30T13:03:52.003Z,2222
2022-09-30T13:08:56.213Z,2042
2022-09-30T13:14:00.443Z,2050
2022-09-30T13:19:04.512Z,2188
2022-09-30T13:24:08.646Z,2067
2022-09-30T13:29:12.932Z,2592
2022-09-30T13:34:17.036Z,2145
2022-09-30T13:39:21.148Z,2322
2022-09-30T13:44:25.286Z,2437
2022-09-30T13:49:29.469Z,2384
2022-09-30T13:54:33.623Z,2661
2022-09-30T13:59:37.780Z,3151
2022-09-30T14:04:40.075Z,4470
2022-09-30T14:09:44.243Z,6093
2022-09-30T14:14:46.538Z,3514
2022-09-30T14:19:50.625Z,4059
2022-09-30T14:24:54.778Z,3731
2022-09-30T14:29:58.955Z,3734
2022-09-30T14:35:03.114Z,2693
2022-09-30T14:40:07.253Z,2400
2022-09-30T14:45:11.435Z,2936
2022-09-30T14:50:15.583Z,4339
2022-09-30T14:55:19.762Z,4399
2022-09-30T15:00:24.007Z,3105
2022-09-30T15:05:28.066Z,2454
2022-09-30T15:10:32.231Z,2450
2022-09-30T15:15:36.394Z,2298
2022-09-30T15:20:40.575Z,2179
2022-09-30T15:25:44.728Z,2830
2022-09-30T15:30:48.891Z,3158
2022-09-30T15:35:56.590Z,2425
2022-09-30T15:40:57.197Z,2572
2022-09-30T15:46:01.441Z,2076
2022-09-30T15:51:05.500Z,5978
2022-09-30T15:56:09.696Z,5554
2022-09-30T16:01:12.005Z,5060
2022-09-30T16:06:16.086Z,5071
2022-09-30T16:11:18.377Z,4761
2022-09-30T16:16:22.619Z,2434
2022-09-30T16:21:26.705Z,3134
2022-09-30T16:26:31.164Z,2082
2022-09-30T16:31:35.070Z,1698
2022-09-30T16:36:39.190Z,1514
2022-09-30T16:41:43.353Z,1260
2022-09-30T16:46:47.487Z,991
2022-09-30T16:51:51.646Z,724
2022-09-30T16:56:57.697Z,510
2022-09-30T17:02:00.004Z,329
2022-09-30T17:07:04.145Z,223
2022-09-30T17:12:08.295Z,147
2022-09-30T17:17:13.436Z,93
2022-09-30T17:22:16.642Z,55
2022-09-30T17:27:20.775Z,28
2022-09-30T17:32:24.962Z,12
2022-09-30T17:37:29.085Z,4
2022-09-30T17:42:33.246Z,1
2022-09-30T17:47:37.386Z,0
2022-09-30T17:52:41.575Z,0
2022-09-30T17:57:43.867Z,0
2022-09-30T18:02:48.120Z,0
2022-09-30T18:07:52.163Z,0
2022-09-30T18:12:54.456Z,0
2022-09-30T18:17:58.597Z,0
2022-09-30T18:23:02.797Z,0
2022-09-30T18:28:06.947Z,0
2022-09-30T18:33:11.067Z,0
2022-09-30T18:38:15.329Z,0
2022-09-30T18:43:19.481Z,0
2022-09-30T18:48:23.552Z,0
2022-09-30T18:53:27.727Z,0
2022-09-30T18:58:31.899Z,0
2022-09-30T19:03:36.041Z,0
2022-09-30T19:08:40.238Z,0
2022-09-30T19:13:44.391Z,0
2022-09-30T19:18:48.538Z,0
2022-09-30T19:23:52.696Z,0
2022-09-30T19:28:56.879Z,0
2022-09-30T19:34:01.028Z,0
2022-09-30T19:39:10.576Z,0
2022-09-30T19:44:09.360Z,0
2022-09-30T19:49:13.489Z,0
2022-09-30T19:54:17.705Z,0
2022-09-30T19:59:19.958Z,0
2022-09-30T20:04:24.086Z,0
2022-09-30T20:09:28.262Z,0
2022-09-30T20:14:32.412Z,0
2022-09-30T20:19:36.594Z,0
2022-09-30T20:24:40.750Z,0
2022-09-30T20:29:44.907Z,0
2022-09-30T20:34:49.034Z,0
2022-09-30T20:39:53.236Z,0
2022-09-30T20:44:57.376Z,0
2022-09-30T20:50:01.547Z,0
2022-09-30T20:55:05.678Z,0
2022-09-30T21:00:09.844Z,0
2022-09-30T21:05:13.994Z,0
2022-09-30T21:10:18.186Z,0
2022-09-30T21:15:22.361Z,0
2022-09-30T21:20:26.498Z,0
2022-09-30T21:25:30.653Z,0
2022-09-30T21:30:34.797Z,0
2022-09-30T21:35:38.984Z,0
2022-09-30T21:40:43.148Z,0
2022-09-30T21:45:45.458Z,0
2022-09-30T21:50:49.556Z,0
2022-09-30T21:55:53.723Z,0
2022-09-30T22:00:57.981Z,0
2022-09-30T22:06:02.018Z,0
2022-09-30T22:11:06.253Z,0
2022-09-30T22:16:11.184Z,0
2022-09-30T22:21:14.689Z,0
2022-09-30T22:26:18.929Z,0
2022-09-30T22:31:22.914Z,0
2022-09-30T22:36:27.054Z,0
2022-09-30T22:41:31.550Z,0
2022-09-30T22:46:35.330Z,0
2022-09-30T22:51:37.616Z,0
2022-09-30T22:56:41.759Z,0
2022-09-30T23:01:44.031Z,0
2022-09-30T23:06:48.196Z,0
2022-09-30T23:11:50.552Z,0
2022-09-30T23:21:58.789Z,0
2022-09-30T23:27:02.925Z,0
2022-09-30T23:32:07.183Z,0
2022-09-30T23:37:11.269Z,0
2022-09-30T23:42:15.424Z,0
2022-09-30T23:47:19.601Z,0
2022-09-30T23:52:23.729Z,0
2022-09-30T23:57:27.926Z,0
